createdAt,value
2022-11-25T00:00:23.345Z,7.10
2022-11-25T00:05:46.689Z,7.10
2022-11-25T00:10:51.937Z,7.20
2022-11-25T00:15:55.415Z,7.20
2022-11-25T00:20:58.786Z,7.20
2022-11-25T00:26:09.397Z,7.20
2022-11-25T00:31:15.975Z,7.20
2022-11-25T00:36:21.880Z,7.20
2022-11-25T00:41:44.759Z,7.30
2022-11-25T00:46:48.445Z,7.30
2022-11-25T00:51:52.086Z,7.30
2022-11-25T00:56:57.115Z,7.30
2022-11-25T01:02:00.968Z,7.30
2022-11-25T01:07:04.436Z,7.30
2022-11-25T01:12:09.439Z,7.30
2022-11-25T01:17:12.848Z,7.30
2022-11-25T01:22:16.206Z,7.30
2022-11-25T01:27:20.937Z,7.40
2022-11-25T01:32:26.352Z,7.40
2022-11-25T01:37:29.779Z,7.40
2022-11-25T01:42:34.513Z,7.40
2022-11-25T01:47:37.906Z,7.40
2022-11-25T01:52:47.022Z,7.40
2022-11-25T01:57:55.557Z,7.50
2022-11-25T02:03:02.529Z,7.50
2022-11-25T02:08:08.125Z,7.50
2022-11-25T02:13:13.250Z,7.40
2022-11-25T02:18:16.901Z,7.40
2022-11-25T02:23:28.889Z,7.50
2022-11-25T02:28:34.234Z,7.50
2022-11-25T02:33:37.826Z,7.50
2022-11-25T02:38:45.249Z,7.50
2022-11-25T02:43:50.066Z,7.50
2022-11-25T02:49:11.005Z,7.50
2022-11-25T02:54:16.014Z,7.50
2022-11-25T02:59:20.760Z,7.40
2022-11-25T03:04:24.260Z,7.40
2022-11-25T03:09:27.800Z,7.40
2022-11-25T03:14:32.985Z,7.40
2022-11-25T03:19:36.544Z,7.40
2022-11-25T03:24:39.988Z,7.40
2022-11-25T03:29:44.864Z,7.40
2022-11-25T03:34:48.253Z,7.40
2022-11-25T03:39:51.788Z,7.40
2022-11-25T03:44:56.648Z,7.40
2022-11-25T03:50:00.683Z,7.50
2022-11-25T03:55:04.624Z,7.50
2022-11-25T04:00:10.886Z,7.50
2022-11-25T04:05:14.328Z,7.50
2022-11-25T04:10:17.863Z,7.50
2022-11-25T04:15:22.700Z,7.50
2022-11-25T04:20:26.162Z,7.50
2022-11-25T04:25:29.877Z,7.50
2022-11-25T04:30:34.851Z,7.60
2022-11-25T04:35:38.357Z,7.60
2022-11-25T04:40:41.781Z,7.60
2022-11-25T04:51:12.057Z,7.60
2022-11-25T04:56:18.683Z,7.60
2022-11-25T05:01:23.540Z,7.60
2022-11-25T05:06:27.077Z,7.60
2022-11-25T05:11:30.482Z,7.60
2022-11-25T05:16:35.516Z,7.60
2022-11-25T05:21:38.963Z,7.60
2022-11-25T05:26:42.349Z,7.70
2022-11-25T05:31:47.479Z,7.70
2022-11-25T05:36:51.965Z,7.70
2022-11-25T05:41:55.394Z,7.70
2022-11-25T05:47:00.125Z,7.70
2022-11-25T05:52:03.702Z,7.70
2022-11-25T05:57:08.332Z,7.70
2022-11-25T06:02:13.150Z,7.70
2022-11-25T06:07:16.923Z,7.70
2022-11-25T06:12:22.114Z,7.60
2022-11-25T06:17:26.892Z,7.60
2022-11-25T06:22:30.364Z,7.70
2022-11-25T06:27:50.415Z,7.70
2022-11-25T06:32:59.582Z,7.70
2022-11-25T06:38:03.450Z,7.70
2022-11-25T06:43:07.198Z,7.80
2022-11-25T06:48:12.044Z,7.80
2022-11-25T06:53:19.910Z,7.80
2022-11-25T06:58:35.912Z,7.80
2022-11-25T07:03:41.565Z,7.80
2022-11-25T07:08:45.614Z,7.80
2022-11-25T07:13:52.333Z,7.80
2022-11-25T07:18:57.686Z,7.80
2022-11-25T07:24:02.946Z,7.80
2022-11-25T07:29:23.495Z,7.90
2022-11-25T07:34:33.333Z,7.90
2022-11-25T07:39:37.183Z,7.90
2022-11-25T07:44:40.991Z,7.90
2022-11-25T07:49:45.824Z,8.00
2022-11-25T07:54:49.920Z,8.00
2022-11-25T07:59:53.388Z,8.10
2022-11-25T08:04:58.125Z,8.10
2022-11-25T08:10:01.696Z,8.20
2022-11-25T08:15:06.777Z,8.20
2022-11-25T08:20:12.184Z,8.20
2022-11-25T08:25:16.151Z,8.20
2022-11-25T08:30:21.481Z,8.30
2022-11-25T08:35:26.867Z,8.30
2022-11-25T08:40:30.409Z,8.40
2022-11-25T08:45:35.093Z,8.40
2022-11-25T08:50:40.420Z,8.40
2022-11-25T08:55:44.104Z,8.50
2022-11-25T09:00:47.541Z,8.50
2022-11-25T09:19:36.300Z,8.80
2022-11-25T09:24:41.734Z,8.90
2022-11-25T09:29:45.081Z,9.00
2022-11-25T09:34:50.201Z,9.10
2022-11-25T09:39:56.088Z,9.10
2022-11-25T09:45:39.972Z,9.20
2022-11-25T09:50:54.889Z,9.30
2022-11-25T09:56:04.466Z,9.40
2022-11-25T10:01:15.026Z,9.40
2022-11-25T10:06:23.739Z,9.50
2022-11-25T10:11:36.042Z,9.60
2022-11-25T10:16:51.430Z,9.60
2022-11-25T10:21:56.641Z,9.70
2022-11-25T10:27:06.019Z,9.70
2022-11-25T10:32:23.188Z,9.80
2022-11-25T10:37:31.693Z,9.80
2022-11-25T10:42:37.038Z,9.80
2022-11-25T10:47:57.255Z,9.90
2022-11-25T10:53:12.106Z,10.00
2022-11-25T10:58:27.524Z,10.00
2022-11-25T11:03:31.076Z,10.10
2022-11-25T11:08:40.456Z,10.10
2022-11-25T11:13:44.364Z,10.20
2022-11-25T11:18:48.887Z,10.20
2022-11-25T11:23:55.330Z,10.30
2022-11-25T11:29:01.457Z,10.30
2022-11-25T11:34:19.628Z,10.30
2022-11-25T11:39:59.996Z,10.40
2022-11-25T11:45:15.927Z,10.40
2022-11-25T11:50:32.784Z,10.40
2022-11-25T11:56:00.305Z,10.50
2022-11-25T12:01:26.492Z,10.50
2022-11-25T12:06:33.857Z,10.50
2022-11-25T12:11:43.984Z,10.50
2022-11-25T12:16:51.761Z,10.50
2022-11-25T12:21:59.889Z,10.50
2022-11-25T12:27:09.935Z,10.60
2022-11-25T12:32:52.275Z,10.60
2022-11-25T12:38:03.302Z,10.70
2022-11-25T12:43:18.703Z,10.70
2022-11-25T12:48:22.194Z,10.70
2022-11-25T12:53:37.782Z,10.70
2022-11-25T12:59:03.529Z,10.70
2022-11-25T13:04:32.920Z,10.80
2022-11-25T13:09:51.223Z,10.80
2022-11-25T13:15:19.371Z,10.80
2022-11-25T13:20:38.155Z,10.80
2022-11-25T13:25:43.705Z,10.80
2022-11-25T13:30:51.996Z,10.90
2022-11-25T13:35:56.685Z,10.90
2022-11-25T13:41:01.544Z,10.80
2022-11-25T13:46:07.051Z,10.80
2022-11-25T13:51:19.773Z,10.80
2022-11-25T13:56:29.872Z,10.80
2022-11-25T14:01:34.637Z,10.80
2022-11-25T14:07:06.950Z,10.80
2022-11-25T14:12:43.209Z,10.90
2022-11-25T14:18:31.472Z,10.80
2022-11-25T14:24:16.388Z,10.80
2022-11-25T14:29:24.648Z,10.80
2022-11-25T14:34:35.202Z,10.80
2022-11-25T14:39:44.415Z,10.70
2022-11-25T14:44:49.901Z,10.70
2022-11-25T14:50:18.925Z,10.70
2022-11-25T14:55:29.469Z,10.70
2022-11-25T15:00:32.928Z,10.70
2022-11-25T15:05:41.032Z,10.70
2022-11-25T15:10:51.660Z,10.60
2022-11-25T15:15:56.696Z,10.70
2022-11-25T15:21:03.051Z,10.60
2022-11-25T15:26:16.525Z,10.60
2022-11-25T15:31:21.899Z,10.60
2022-11-25T15:36:27.378Z,10.60
2022-11-25T15:41:34.569Z,10.60
2022-11-25T15:46:39.221Z,10.60
2022-11-25T15:51:49.769Z,10.60
2022-11-25T15:56:55.399Z,10.60
2022-11-25T16:01:58.867Z,10.50
2022-11-25T16:07:05.043Z,10.50
2022-11-25T16:12:17.735Z,10.50
2022-11-25T16:17:21.137Z,10.50
2022-11-25T16:22:26.521Z,10.40
2022-11-25T16:27:31.322Z,10.50
2022-11-25T16:32:35.188Z,10.40
2022-11-25T16:37:41.805Z,10.40
2022-11-25T16:42:51.713Z,10.40
2022-11-25T16:47:55.479Z,10.40
2022-11-25T16:53:01.497Z,10.40
2022-11-25T16:58:09.675Z,10.40
2022-11-25T17:03:13.835Z,10.30
2022-11-25T17:08:18.736Z,10.30
2022-11-25T17:13:24.495Z,10.30
2022-11-25T17:18:28.227Z,10.30
2022-11-25T17:23:32.956Z,10.20
2022-11-25T17:28:36.746Z,10.30
2022-11-25T17:33:42.861Z,10.20
2022-11-25T17:38:47.548Z,10.20
2022-11-25T17:43:53.285Z,10.20
2022-11-25T17:48:57.088Z,10.20
2022-11-25T17:54:01.860Z,10.10
2022-11-25T17:59:11.278Z,10.10
2022-11-25T18:04:23.108Z,10.00
2022-11-25T18:09:28.252Z,10.00
2022-11-25T18:14:36.028Z,9.90
2022-11-25T18:19:39.850Z,9.80
2022-11-25T18:24:46.147Z,9.80
2022-11-25T18:29:49.768Z,9.70
2022-11-25T18:34:53.322Z,9.70
2022-11-25T18:39:58.178Z,9.60
2022-11-25T18:45:01.868Z,9.50
2022-11-25T18:50:14.147Z,9.40
2022-11-25T18:55:21.160Z,9.30
2022-11-25T19:00:33.353Z,9.20
2022-11-25T19:05:37.114Z,9.10
2022-11-25T19:10:44.244Z,9.00
2022-11-25T19:15:48.270Z,9.00
2022-11-25T19:20:51.868Z,8.90
2022-11-25T19:26:01.004Z,8.80
2022-11-25T19:31:06.178Z,8.80
2022-11-25T19:36:17.151Z,8.60
2022-11-25T19:41:22.607Z,8.60
2022-11-25T19:46:33.079Z,8.50
2022-11-25T19:51:40.762Z,8.40
2022-11-25T19:56:46.658Z,8.30
2022-11-25T20:01:50.149Z,8.30
2022-11-25T20:06:53.872Z,8.20
2022-11-25T20:12:06.957Z,8.20
2022-11-25T20:17:18.502Z,8.10
2022-11-25T20:22:26.998Z,8.10
2022-11-25T20:27:32.157Z,8.00
2022-11-25T20:32:35.556Z,7.90
2022-11-25T20:37:50.968Z,7.90
2022-11-25T20:42:56.170Z,7.90
2022-11-25T20:47:59.548Z,7.80
2022-11-25T20:53:04.301Z,7.80
2022-11-25T20:58:19.386Z,7.70
2022-11-25T21:03:23.105Z,7.70
2022-11-25T21:08:30.139Z,7.60
2022-11-25T21:13:35.738Z,7.60
2022-11-25T21:18:39.950Z,7.60
2022-11-25T21:23:45.264Z,7.60
2022-11-25T21:28:52.925Z,7.60
2022-11-25T21:33:59.453Z,7.60
2022-11-25T21:39:05.954Z,7.50
2022-11-25T21:44:21.510Z,7.40
2022-11-25T21:49:26.107Z,7.30
2022-11-25T21:54:29.546Z,7.30
2022-11-25T21:59:34.308Z,7.30
2022-11-25T22:04:37.927Z,7.30
2022-11-25T22:09:42.010Z,7.30
2022-11-25T22:14:47.150Z,7.30
2022-11-25T22:19:50.901Z,7.30
2022-11-25T22:24:54.342Z,7.40
2022-11-25T22:29:59.473Z,7.40
2022-11-25T22:35:02.865Z,7.40
2022-11-25T22:40:08.348Z,7.30
2022-11-25T22:45:19.657Z,7.40
2022-11-25T22:50:27.374Z,7.40
2022-11-25T22:55:32.606Z,7.40
2022-11-25T23:00:40.869Z,7.40
2022-11-25T23:05:44.409Z,7.40
2022-11-25T23:10:49.122Z,7.40
2022-11-25T23:15:56.268Z,7.30
2022-11-25T23:20:59.879Z,7.10
2022-11-25T23:26:03.254Z,7.00
2022-11-25T23:31:08.328Z,6.90
2022-11-25T23:36:15.192Z,6.90
2022-11-25T23:41:21.857Z,6.80
2022-11-25T23:46:33.902Z,6.90
2022-11-25T23:51:37.609Z,6.90
2022-11-25T23:56:40.994Z,6.90
